sensor_id;sensor_type;location;lat;lon;timestamp;temperature;humidity
28374;DHT22;15616;40.148;-102.718;2023-03-01T00:02:06;20.10;45.70
28374;DHT22;15616;40.148;-102.718;2023-03-01T00:04:32;20.10;45.60
28374;DHT22;15616;40.148;-102.718;2023-03-01T00:06:58;20.10;45.60
28374;DHT22;15616;40.148;-102.718;2023-03-01T00:09:24;20.10;45.60
28374;DHT22;15616;40.148;-102.718;2023-03-01T00:11:50;20.10;45.60
28374;DHT22;15616;40.148;-102.718;2023-03-01T00:14:16;20.20;45.60
28374;DHT22;15616;40.148;-102.718;2023-03-01T00:16:44;20.20;45.60
28374;DHT22;15616;40.148;-102.718;2023-03-01T00:19:13;20.20;45.70
28374;DHT22;15616;40.148;-102.718;2023-03-01T00:21:40;20.20;45.60
28374;DHT22;15616;40.148;-102.718;2023-03-01T00:24:06;20.20;45.60
28374;DHT22;15616;40.148;-102.718;2023-03-01T00:26:32;20.20;45.60
28374;DHT22;15616;40.148;-102.718;2023-03-01T00:28:59;20.20;45.70
28374;DHT22;15616;40.148;-102.718;2023-03-01T00:31:27;20.10;45.70
28374;DHT22;15616;40.148;-102.718;2023-03-01T00:34:00;20.20;45.70
28374;DHT22;15616;40.148;-102.718;2023-03-01T00:36:28;20.10;45.70
28374;DHT22;15616;40.148;-102.718;2023-03-01T00:38:55;20.10;45.70
28374;DHT22;15616;40.148;-102.718;2023-03-01T00:41:22;20.10;45.70
28374;DHT22;15616;40.148;-102.718;2023-03-01T00:43:49;20.10;45.80
28374;DHT22;15616;40.148;-102.718;2023-03-01T00:46:18;20.10;45.80
28374;DHT22;15616;40.148;-102.718;2023-03-01T00:48:44;20.10;45.70
28374;DHT22;15616;40.148;-102.718;2023-03-01T00:51:17;20.10;45.70
28374;DHT22;15616;40.148;-102.718;2023-03-01T00:53:44;20.10;45.70
28374;DHT22;15616;40.148;-102.718;2023-03-01T00:56:12;20.10;45.60
28374;DHT22;15616;40.148;-102.718;2023-03-01T00:58:38;20.20;45.70
28374;DHT22;15616;40.148;-102.718;2023-03-01T01:01:13;20.20;45.60
28374;DHT22;15616;40.148;-102.718;2023-03-01T01:03:50;20.20;45.60
28374;DHT22;15616;40.148;-102.718;2023-03-01T01:06:21;20.20;45.70
28374;DHT22;15616;40.148;-102.718;2023-03-01T01:08:48;20.20;45.70
28374;DHT22;15616;40.148;-102.718;2023-03-01T01:11:14;20.20;45.70
28374;DHT22;15616;40.148;-102.718;2023-03-01T01:13:41;20.20;45.60
28374;DHT22;15616;40.148;-102.718;2023-03-01T01:16:08;20.20;45.70
28374;DHT22;15616;40.148;-102.718;2023-03-01T01:18:33;20.20;45.70
28374;DHT22;15616;40.148;-102.718;2023-03-01T01:21:09;20.10;45.70
28374;DHT22;15616;40.148;-102.718;2023-03-01T01:23:36;20.10;45.70
28374;DHT22;15616;40.148;-102.718;2023-03-01T01:26:07;20.10;45.80
28374;DHT22;15616;40.148;-102.718;2023-03-01T01:28:34;20.10;45.80
28374;DHT22;15616;40.148;-102.718;2023-03-01T01:31:00;20.10;45.80
28374;DHT22;15616;40.148;-102.718;2023-03-01T01:33:26;20.10;45.80
28374;DHT22;15616;40.148;-102.718;2023-03-01T01:35:52;20.10;45.80
28374;DHT22;15616;40.148;-102.718;2023-03-01T01:38:19;20.10;45.80
28374;DHT22;15616;40.148;-102.718;2023-03-01T01:40:46;20.10;45.70
28374;DHT22;15616;40.148;-102.718;2023-03-01T01:43:22;20.10;45.70
28374;DHT22;15616;40.148;-102.718;2023-03-01T01:45:49;20.10;45.70
28374;DHT22;15616;40.148;-102.718;2023-03-01T01:48:21;20.10;45.70
28374;DHT22;15616;40.148;-102.718;2023-03-01T01:50:57;20.20;45.70
28374;DHT22;15616;40.148;-102.718;2023-03-01T01:53:25;20.20;45.70
28374;DHT22;15616;40.148;-102.718;2023-03-01T01:55:54;20.10;45.70
28374;DHT22;15616;40.148;-102.718;2023-03-01T01:58:24;20.10;45.70
28374;DHT22;15616;40.148;-102.718;2023-03-01T02:00:53;20.10;45.70
28374;DHT22;15616;40.148;-102.718;2023-03-01T02:03:24;20.10;45.80
28374;DHT22;15616;40.148;-102.718;2023-03-01T02:08:46;20.10;45.80
28374;DHT22;15616;40.148;-102.718;2023-03-01T02:11:12;20.10;45.90
28374;DHT22;15616;40.148;-102.718;2023-03-01T02:13:41;20.00;45.80
28374;DHT22;15616;40.148;-102.718;2023-03-01T02:16:12;20.10;45.90
28374;DHT22;15616;40.148;-102.718;2023-03-01T02:18:40;20.10;45.80
28374;DHT22;15616;40.148;-102.718;2023-03-01T02:23:41;20.10;45.70
28374;DHT22;15616;40.148;-102.718;2023-03-01T02:26:28;20.10;45.70
28374;DHT22;15616;40.148;-102.718;2023-03-01T02:28:58;20.10;45.80
28374;DHT22;15616;40.148;-102.718;2023-03-01T02:31:25;20.10;45.70
28374;DHT22;15616;40.148;-102.718;2023-03-01T02:34:13;20.20;46.40
28374;DHT22;15616;40.148;-102.718;2023-03-01T02:39:34;20.10;45.70
28374;DHT22;15616;40.148;-102.718;2023-03-01T02:42:02;20.10;45.70
28374;DHT22;15616;40.148;-102.718;2023-03-01T02:44:29;20.10;45.70
28374;DHT22;15616;40.148;-102.718;2023-03-01T02:46:56;20.10;45.70
28374;DHT22;15616;40.148;-102.718;2023-03-01T02:49:24;20.10;45.80
28374;DHT22;15616;40.148;-102.718;2023-03-01T02:57:25;20.10;45.90
28374;DHT22;15616;40.148;-102.718;2023-03-01T02:59:54;20.10;45.90
28374;DHT22;15616;40.148;-102.718;2023-03-01T03:02:28;20.10;45.90
28374;DHT22;15616;40.148;-102.718;2023-03-01T03:05:09;20.10;45.90
28374;DHT22;15616;40.148;-102.718;2023-03-01T03:07:37;20.10;45.90
28374;DHT22;15616;40.148;-102.718;2023-03-01T03:10:05;20.10;45.90
28374;DHT22;15616;40.148;-102.718;2023-03-01T03:12:32;20.10;45.80
28374;DHT22;15616;40.148;-102.718;2023-03-01T03:14:57;20.10;45.80
28374;DHT22;15616;40.148;-102.718;2023-03-01T03:17:23;20.10;45.80
28374;DHT22;15616;40.148;-102.718;2023-03-01T03:19:49;20.10;45.80
28374;DHT22;15616;40.148;-102.718;2023-03-01T03:22:15;20.10;45.70
28374;DHT22;15616;40.148;-102.718;2023-03-01T03:24:41;20.10;45.70
28374;DHT22;15616;40.148;-102.718;2023-03-01T03:27:07;20.10;45.80
28374;DHT22;15616;40.148;-102.718;2023-03-01T03:29:33;20.10;45.80
28374;DHT22;15616;40.148;-102.718;2023-03-01T03:31:59;20.10;45.80
28374;DHT22;15616;40.148;-102.718;2023-03-01T03:34:25;20.00;45.80
28374;DHT22;15616;40.148;-102.718;2023-03-01T03:36:55;20.10;46.00
28374;DHT22;15616;40.148;-102.718;2023-03-01T03:39:23;20.10;46.00
28374;DHT22;15616;40.148;-102.718;2023-03-01T03:41:49;20.00;46.00
28374;DHT22;15616;40.148;-102.718;2023-03-01T03:44:15;20.00;46.00
28374;DHT22;15616;40.148;-102.718;2023-03-01T03:46:40;20.10;46.00
28374;DHT22;15616;40.148;-102.718;2023-03-01T03:49:06;20.10;45.90
28374;DHT22;15616;40.148;-102.718;2023-03-01T03:51:32;20.10;45.90
28374;DHT22;15616;40.148;-102.718;2023-03-01T03:53:58;20.10;45.80
28374;DHT22;15616;40.148;-102.718;2023-03-01T03:56:24;20.10;45.90
28374;DHT22;15616;40.148;-102.718;2023-03-01T03:58:52;20.10;45.80
28374;DHT22;15616;40.148;-102.718;2023-03-01T04:01:18;20.10;45.80
28374;DHT22;15616;40.148;-102.718;2023-03-01T04:03:44;20.10;45.80
28374;DHT22;15616;40.148;-102.718;2023-03-01T04:06:13;20.10;45.80
28374;DHT22;15616;40.148;-102.718;2023-03-01T04:08:39;20.10;45.80
28374;DHT22;15616;40.148;-102.718;2023-03-01T04:11:06;20.10;45.80
28374;DHT22;15616;40.148;-102.718;2023-03-01T04:13:53;20.10;45.80
28374;DHT22;15616;40.148;-102.718;2023-03-01T04:16:19;20.10;45.90
28374;DHT22;15616;40.148;-102.718;2023-03-01T04:18:45;20.10;45.90
28374;DHT22;15616;40.148;-102.718;2023-03-01T04:21:11;20.10;45.90
28374;DHT22;15616;40.148;-102.718;2023-03-01T04:23:38;20.10;46.00
28374;DHT22;15616;40.148;-102.718;2023-03-01T04:26:04;20.10;45.90
28374;DHT22;15616;40.148;-102.718;2023-03-01T04:28:31;20.10;45.90
28374;DHT22;15616;40.148;-102.718;2023-03-01T04:31:12;20.10;45.90
28374;DHT22;15616;40.148;-102.718;2023-03-01T04:33:46;20.10;45.80
28374;DHT22;15616;40.148;-102.718;2023-03-01T04:36:13;20.10;45.90
28374;DHT22;15616;40.148;-102.718;2023-03-01T04:38:40;20.10;45.90
28374;DHT22;15616;40.148;-102.718;2023-03-01T04:41:07;20.10;46.00
28374;DHT22;15616;40.148;-102.718;2023-03-01T04:43:33;20.10;45.90
28374;DHT22;15616;40.148;-102.718;2023-03-01T04:46:07;20.10;45.90
28374;DHT22;15616;40.148;-102.718;2023-03-01T04:48:39;20.10;45.90
28374;DHT22;15616;40.148;-102.718;2023-03-01T04:51:05;20.10;46.00
28374;DHT22;15616;40.148;-102.718;2023-03-01T04:53:32;20.10;45.90
28374;DHT22;15616;40.148;-102.718;2023-03-01T04:55:59;20.10;46.00
28374;DHT22;15616;40.148;-102.718;2023-03-01T04:58:28;20.10;46.00
28374;DHT22;15616;40.148;-102.718;2023-03-01T05:00:54;20.10;46.00
28374;DHT22;15616;40.148;-102.718;2023-03-01T05:03:21;20.10;46.00
28374;DHT22;15616;40.148;-102.718;2023-03-01T05:05:49;20.10;46.00
28374;DHT22;15616;40.148;-102.718;2023-03-01T05:08:15;20.10;45.90
28374;DHT22;15616;40.148;-102.718;2023-03-01T05:10:50;20.00;45.90
28374;DHT22;15616;40.148;-102.718;2023-03-01T05:13:17;20.00;45.70
28374;DHT22;15616;40.148;-102.718;2023-03-01T05:15:57;20.00;45.70
28374;DHT22;15616;40.148;-102.718;2023-03-01T05:18:24;20.00;45.60
28374;DHT22;15616;40.148;-102.718;2023-03-01T05:20:55;20.00;45.70
28374;DHT22;15616;40.148;-102.718;2023-03-01T05:23:24;20.00;45.60
28374;DHT22;15616;40.148;-102.718;2023-03-01T05:25:50;20.00;45.60
28374;DHT22;15616;40.148;-102.718;2023-03-01T05:28:19;20.00;45.50
28374;DHT22;15616;40.148;-102.718;2023-03-01T05:30:46;20.10;45.40
28374;DHT22;15616;40.148;-102.718;2023-03-01T05:33:12;20.10;45.40
28374;DHT22;15616;40.148;-102.718;2023-03-01T05:35:42;20.10;45.30
28374;DHT22;15616;40.148;-102.718;2023-03-01T05:38:09;20.10;45.30
28374;DHT22;15616;40.148;-102.718;2023-03-01T05:40:41;20.10;45.30
28374;DHT22;15616;40.148;-102.718;2023-03-01T05:43:07;20.10;45.20
28374;DHT22;15616;40.148;-102.718;2023-03-01T05:45:33;20.20;45.10
28374;DHT22;15616;40.148;-102.718;2023-03-01T05:47:59;20.20;45.10
28374;DHT22;15616;40.148;-102.718;2023-03-01T05:50:27;20.20;45.00
28374;DHT22;15616;40.148;-102.718;2023-03-01T05:53:02;20.20;45.00
28374;DHT22;15616;40.148;-102.718;2023-03-01T05:55:29;20.30;45.00
28374;DHT22;15616;40.148;-102.718;2023-03-01T05:57:59;20.20;45.00
28374;DHT22;15616;40.148;-102.718;2023-03-01T06:00:25;20.30;45.00
28374;DHT22;15616;40.148;-102.718;2023-03-01T06:02:53;20.30;45.00
28374;DHT22;15616;40.148;-102.718;2023-03-01T06:05:19;20.30;45.00
28374;DHT22;15616;40.148;-102.718;2023-03-01T06:07:45;20.20;45.00
28374;DHT22;15616;40.148;-102.718;2023-03-01T06:10:12;20.30;45.10
28374;DHT22;15616;40.148;-102.718;2023-03-01T06:12:41;20.20;45.10
28374;DHT22;15616;40.148;-102.718;2023-03-01T06:15:08;20.20;45.20
28374;DHT22;15616;40.148;-102.718;2023-03-01T06:17:36;20.20;45.20
28374;DHT22;15616;40.148;-102.718;2023-03-01T06:20:05;20.20;45.30
28374;DHT22;15616;40.148;-102.718;2023-03-01T06:22:31;20.20;45.20
28374;DHT22;15616;40.148;-102.718;2023-03-01T06:24:57;20.20;45.20
28374;DHT22;15616;40.148;-102.718;2023-03-01T06:27:23;20.10;45.00
28374;DHT22;15616;40.148;-102.718;2023-03-01T06:29:49;20.20;45.00
28374;DHT22;15616;40.148;-102.718;2023-03-01T06:32:15;20.20;45.00
28374;DHT22;15616;40.148;-102.718;2023-03-01T06:34:41;20.20;45.00
28374;DHT22;15616;40.148;-102.718;2023-03-01T06:37:07;20.20;45.00
28374;DHT22;15616;40.148;-102.718;2023-03-01T06:39:33;20.20;44.90
28374;DHT22;15616;40.148;-102.718;2023-03-01T06:41:59;20.20;44.90
28374;DHT22;15616;40.148;-102.718;2023-03-01T06:44:26;20.20;44.90
28374;DHT22;15616;40.148;-102.718;2023-03-01T06:46:52;20.20;44.90
28374;DHT22;15616;40.148;-102.718;2023-03-01T06:49:18;20.20;44.90
28374;DHT22;15616;40.148;-102.718;2023-03-01T06:51:45;20.20;44.80
28374;DHT22;15616;40.148;-102.718;2023-03-01T06:54:12;20.20;44.80
28374;DHT22;15616;40.148;-102.718;2023-03-01T06:56:38;20.20;44.80
28374;DHT22;15616;40.148;-102.718;2023-03-01T06:59:04;20.20;44.90
28374;DHT22;15616;40.148;-102.718;2023-03-01T07:01:31;20.20;44.90
28374;DHT22;15616;40.148;-102.718;2023-03-01T07:03:57;20.20;45.00
28374;DHT22;15616;40.148;-102.718;2023-03-01T07:06:23;20.20;45.00
28374;DHT22;15616;40.148;-102.718;2023-03-01T07:08:49;20.20;45.00
28374;DHT22;15616;40.148;-102.718;2023-03-01T07:11:15;20.20;44.90
28374;DHT22;15616;40.148;-102.718;2023-03-01T07:13:41;20.30;44.80
28374;DHT22;15616;40.148;-102.718;2023-03-01T07:16:08;20.30;44.50
28374;DHT22;15616;40.148;-102.718;2023-03-01T07:18:34;20.30;44.40
28374;DHT22;15616;40.148;-102.718;2023-03-01T07:21:11;20.30;44.40
28374;DHT22;15616;40.148;-102.718;2023-03-01T07:23:37;20.40;44.20
28374;DHT22;15616;40.148;-102.718;2023-03-01T07:26:03;20.40;44.20
28374;DHT22;15616;40.148;-102.718;2023-03-01T07:28:30;20.40;44.70
28374;DHT22;15616;40.148;-102.718;2023-03-01T07:31:03;20.50;43.90
28374;DHT22;15616;40.148;-102.718;2023-03-01T07:33:29;20.50;43.80
28374;DHT22;15616;40.148;-102.718;2023-03-01T07:35:59;20.50;43.70
28374;DHT22;15616;40.148;-102.718;2023-03-01T07:38:26;20.50;43.70
28374;DHT22;15616;40.148;-102.718;2023-03-01T07:40:53;20.50;43.70
28374;DHT22;15616;40.148;-102.718;2023-03-01T07:43:19;20.50;43.60
28374;DHT22;15616;40.148;-102.718;2023-03-01T07:45:46;20.50;43.60
28374;DHT22;15616;40.148;-102.718;2023-03-01T07:48:12;20.50;43.70
28374;DHT22;15616;40.148;-102.718;2023-03-01T07:50:38;20.50;43.80
28374;DHT22;15616;40.148;-102.718;2023-03-01T07:53:04;20.50;43.90
28374;DHT22;15616;40.148;-102.718;2023-03-01T07:55:30;20.40;43.90
28374;DHT22;15616;40.148;-102.718;2023-03-01T07:57:56;20.40;43.90
28374;DHT22;15616;40.148;-102.718;2023-03-01T08:00:22;20.40;43.90
28374;DHT22;15616;40.148;-102.718;2023-03-01T08:02:48;20.50;43.90
28374;DHT22;15616;40.148;-102.718;2023-03-01T08:05:14;20.40;43.80
28374;DHT22;15616;40.148;-102.718;2023-03-01T08:07:40;20.40;43.70
28374;DHT22;15616;40.148;-102.718;2023-03-01T08:10:06;20.50;43.70
28374;DHT22;15616;40.148;-102.718;2023-03-01T08:12:32;20.40;43.60
28374;DHT22;15616;40.148;-102.718;2023-03-01T08:14:58;20.40;43.70
28374;DHT22;15616;40.148;-102.718;2023-03-01T08:17:24;20.40;43.60
28374;DHT22;15616;40.148;-102.718;2023-03-01T08:19:50;20.40;43.70
28374;DHT22;15616;40.148;-102.718;2023-03-01T08:22:16;20.40;43.90
28374;DHT22;15616;40.148;-102.718;2023-03-01T08:24:42;20.40;43.90
28374;DHT22;15616;40.148;-102.718;2023-03-01T08:27:08;20.40;43.90
28374;DHT22;15616;40.148;-102.718;2023-03-01T08:29:34;20.40;43.90
28374;DHT22;15616;40.148;-102.718;2023-03-01T08:32:00;20.40;44.00
28374;DHT22;15616;40.148;-102.718;2023-03-01T08:34:26;20.40;44.00
28374;DHT22;15616;40.148;-102.718;2023-03-01T08:36:52;20.40;43.90
28374;DHT22;15616;40.148;-102.718;2023-03-01T08:39:20;20.40;44.80
28374;DHT22;15616;40.148;-102.718;2023-03-01T08:41:46;20.40;44.00
28374;DHT22;15616;40.148;-102.718;2023-03-01T08:44:13;20.40;43.90
28374;DHT22;15616;40.148;-102.718;2023-03-01T08:46:42;20.40;43.80
28374;DHT22;15616;40.148;-102.718;2023-03-01T08:49:14;20.40;43.60
28374;DHT22;15616;40.148;-102.718;2023-03-01T08:51:40;20.40;43.50
28374;DHT22;15616;40.148;-102.718;2023-03-01T08:54:10;20.40;43.50
28374;DHT22;15616;40.148;-102.718;2023-03-01T08:56:36;20.40;43.40
28374;DHT22;15616;40.148;-102.718;2023-03-01T08:59:03;20.40;43.50
28374;DHT22;15616;40.148;-102.718;2023-03-01T09:01:29;20.40;43.60
28374;DHT22;15616;40.148;-102.718;2023-03-01T09:03:55;20.40;43.60
28374;DHT22;15616;40.148;-102.718;2023-03-01T09:06:21;20.40;43.70
28374;DHT22;15616;40.148;-102.718;2023-03-01T09:08:49;20.40;43.80
28374;DHT22;15616;40.148;-102.718;2023-03-01T09:11:18;20.40;43.80
28374;DHT22;15616;40.148;-102.718;2023-03-01T09:13:46;20.40;43.90
28374;DHT22;15616;40.148;-102.718;2023-03-01T09:16:15;20.30;43.80
28374;DHT22;15616;40.148;-102.718;2023-03-01T09:18:43;20.30;43.80
28374;DHT22;15616;40.148;-102.718;2023-03-01T09:21:12;20.40;43.80
28374;DHT22;15616;40.148;-102.718;2023-03-01T09:23:41;20.40;43.80
28374;DHT22;15616;40.148;-102.718;2023-03-01T09:26:09;20.40;43.70
28374;DHT22;15616;40.148;-102.718;2023-03-01T09:28:36;20.40;43.60
28374;DHT22;15616;40.148;-102.718;2023-03-01T09:31:03;20.40;43.60
28374;DHT22;15616;40.148;-102.718;2023-03-01T09:33:30;20.40;43.50
28374;DHT22;15616;40.148;-102.718;2023-03-01T09:36:01;20.40;43.50
28374;DHT22;15616;40.148;-102.718;2023-03-01T09:38:28;20.50;43.50
28374;DHT22;15616;40.148;-102.718;2023-03-01T09:40:54;20.50;43.50
28374;DHT22;15616;40.148;-102.718;2023-03-01T09:43:25;20.50;43.50
28374;DHT22;15616;40.148;-102.718;2023-03-01T09:45:54;20.50;43.60
28374;DHT22;15616;40.148;-102.718;2023-03-01T09:48:25;20.50;43.60
28374;DHT22;15616;40.148;-102.718;2023-03-01T09:50:52;20.50;43.60
28374;DHT22;15616;40.148;-102.718;2023-03-01T09:53:21;20.50;43.60
28374;DHT22;15616;40.148;-102.718;2023-03-01T09:56:15;20.50;43.70
28374;DHT22;15616;40.148;-102.718;2023-03-01T10:04:23;20.50;43.70
28374;DHT22;15616;40.148;-102.718;2023-03-01T10:09:33;20.40;43.70
28374;DHT22;15616;40.148;-102.718;2023-03-01T10:12:01;20.40;43.70
28374;DHT22;15616;40.148;-102.718;2023-03-01T10:19:47;20.40;43.50
28374;DHT22;15616;40.148;-102.718;2023-03-01T10:22:22;20.40;43.30
28374;DHT22;15616;40.148;-102.718;2023-03-01T10:24:52;20.50;43.20
28374;DHT22;15616;40.148;-102.718;2023-03-01T10:32:54;20.60;43.40
28374;DHT22;15616;40.148;-102.718;2023-03-01T10:35:23;20.60;43.30
28374;DHT22;15616;40.148;-102.718;2023-03-01T10:40:32;20.60;42.60
28374;DHT22;15616;40.148;-102.718;2023-03-01T10:42:59;20.60;42.70
28374;DHT22;15616;40.148;-102.718;2023-03-01T10:45:31;20.60;42.80
28374;DHT22;15616;40.148;-102.718;2023-03-01T10:48:18;20.60;42.90
28374;DHT22;15616;40.148;-102.718;2023-03-01T10:50:47;20.60;42.90
28374;DHT22;15616;40.148;-102.718;2023-03-01T10:53:27;20.60;42.80
28374;DHT22;15616;40.148;-102.718;2023-03-01T10:56:05;20.60;42.60
28374;DHT22;15616;40.148;-102.718;2023-03-01T10:58:33;20.60;42.80
28374;DHT22;15616;40.148;-102.718;2023-03-01T11:01:03;20.60;42.90
28374;DHT22;15616;40.148;-102.718;2023-03-01T11:03:37;20.60;42.90
28374;DHT22;15616;40.148;-102.718;2023-03-01T11:13:35;20.60;43.00
28374;DHT22;15616;40.148;-102.718;2023-03-01T11:16:06;20.60;43.20
28374;DHT22;15616;40.148;-102.718;2023-03-01T11:18:33;20.60;43.20
28374;DHT22;15616;40.148;-102.718;2023-03-01T11:21:01;20.60;43.30
28374;DHT22;15616;40.148;-102.718;2023-03-01T11:23:29;20.50;43.20
28374;DHT22;15616;40.148;-102.718;2023-03-01T11:26:05;20.60;43.30
28374;DHT22;15616;40.148;-102.718;2023-03-01T11:28:36;20.60;43.30
28374;DHT22;15616;40.148;-102.718;2023-03-01T11:31:06;20.50;43.30
28374;DHT22;15616;40.148;-102.718;2023-03-01T11:33:46;20.50;43.50
28374;DHT22;15616;40.148;-102.718;2023-03-01T11:38:39;20.60;43.90
28374;DHT22;15616;40.148;-102.718;2023-03-01T11:41:10;20.60;44.00
28374;DHT22;15616;40.148;-102.718;2023-03-01T11:43:44;20.60;43.90
28374;DHT22;15616;40.148;-102.718;2023-03-01T11:52:12;20.60;43.30
28374;DHT22;15616;40.148;-102.718;2023-03-01T12:08:28;20.60;42.50
28374;DHT22;15616;40.148;-102.718;2023-03-01T12:16:49;20.60;43.20
28374;DHT22;15616;40.148;-102.718;2023-03-01T12:24:59;20.60;42.40
28374;DHT22;15616;40.148;-102.718;2023-03-01T12:27:55;20.60;42.30
28374;DHT22;15616;40.148;-102.718;2023-03-01T12:30:56;20.60;42.30
28374;DHT22;15616;40.148;-102.718;2023-03-01T12:33:55;20.60;42.50
28374;DHT22;15616;40.148;-102.718;2023-03-01T12:49:57;20.70;42.60
28374;DHT22;15616;40.148;-102.718;2023-03-01T12:52:39;20.60;42.50
28374;DHT22;15616;40.148;-102.718;2023-03-01T12:58:34;20.70;42.70
28374;DHT22;15616;40.148;-102.718;2023-03-01T13:01:19;20.60;42.80
28374;DHT22;15616;40.148;-102.718;2023-03-01T13:04:07;20.60;42.80
28374;DHT22;15616;40.148;-102.718;2023-03-01T13:07:04;20.60;42.90
28374;DHT22;15616;40.148;-102.718;2023-03-01T13:10:03;20.70;43.00
28374;DHT22;15616;40.148;-102.718;2023-03-01T13:12:53;20.70;42.80
28374;DHT22;15616;40.148;-102.718;2023-03-01T13:15:29;20.70;42.70
28374;DHT22;15616;40.148;-102.718;2023-03-01T13:18:28;20.70;42.80
28374;DHT22;15616;40.148;-102.718;2023-03-01T13:20:59;20.70;42.50
28374;DHT22;15616;40.148;-102.718;2023-03-01T13:23:31;20.80;42.40
28374;DHT22;15616;40.148;-102.718;2023-03-01T13:26:14;20.70;42.30
28374;DHT22;15616;40.148;-102.718;2023-03-01T13:33:45;20.80;42.20
28374;DHT22;15616;40.148;-102.718;2023-03-01T13:39:05;20.80;42.20
28374;DHT22;15616;40.148;-102.718;2023-03-01T13:41:54;20.80;42.20
28374;DHT22;15616;40.148;-102.718;2023-03-01T13:49:48;20.70;42.20
28374;DHT22;15616;40.148;-102.718;2023-03-01T13:57:41;20.70;42.70
28374;DHT22;15616;40.148;-102.718;2023-03-01T14:03:14;20.80;42.70
28374;DHT22;15616;40.148;-102.718;2023-03-01T14:05:42;20.90;42.60
28374;DHT22;15616;40.148;-102.718;2023-03-01T14:08:21;20.80;42.50
28374;DHT22;15616;40.148;-102.718;2023-03-01T14:19:21;21.10;42.00
28374;DHT22;15616;40.148;-102.718;2023-03-01T14:24:51;21.30;41.60
28374;DHT22;15616;40.148;-102.718;2023-03-01T14:27:18;21.20;41.70
28374;DHT22;15616;40.148;-102.718;2023-03-01T14:29:58;21.20;41.70
28374;DHT22;15616;40.148;-102.718;2023-03-01T14:32:27;21.10;41.70
28374;DHT22;15616;40.148;-102.718;2023-03-01T14:34:54;21.10;41.90
28374;DHT22;15616;40.148;-102.718;2023-03-01T14:39:46;21.00;41.90
28374;DHT22;15616;40.148;-102.718;2023-03-01T14:42:12;21.00;42.00
28374;DHT22;15616;40.148;-102.718;2023-03-01T14:44:45;20.90;42.00
28374;DHT22;15616;40.148;-102.718;2023-03-01T14:52:39;20.90;41.90
28374;DHT22;15616;40.148;-102.718;2023-03-01T14:55:24;20.90;41.80
28374;DHT22;15616;40.148;-102.718;2023-03-01T14:57:52;20.90;41.80
28374;DHT22;15616;40.148;-102.718;2023-03-01T15:00:27;20.90;41.80
28374;DHT22;15616;40.148;-102.718;2023-03-01T15:02:55;20.90;41.70
28374;DHT22;15616;40.148;-102.718;2023-03-01T15:05:33;20.90;41.80
28374;DHT22;15616;40.148;-102.718;2023-03-01T15:08:01;20.90;41.80
28374;DHT22;15616;40.148;-102.718;2023-03-01T15:10:34;20.90;41.90
28374;DHT22;15616;40.148;-102.718;2023-03-01T15:13:23;20.90;42.10
28374;DHT22;15616;40.148;-102.718;2023-03-01T15:15:51;20.90;42.10
28374;DHT22;15616;40.148;-102.718;2023-03-01T15:18:22;20.90;42.80
28374;DHT22;15616;40.148;-102.718;2023-03-01T15:20:51;20.90;42.20
28374;DHT22;15616;40.148;-102.718;2023-03-01T15:23:23;20.90;42.10
28374;DHT22;15616;40.148;-102.718;2023-03-01T15:25:51;20.90;42.00
28374;DHT22;15616;40.148;-102.718;2023-03-01T15:28:39;20.90;42.00
28374;DHT22;15616;40.148;-102.718;2023-03-01T15:31:34;20.80;41.90
28374;DHT22;15616;40.148;-102.718;2023-03-01T15:36:46;20.80;41.80
28374;DHT22;15616;40.148;-102.718;2023-03-01T15:39:40;20.80;42.00
28374;DHT22;15616;40.148;-102.718;2023-03-01T15:42:11;20.80;41.80
28374;DHT22;15616;40.148;-102.718;2023-03-01T15:44:39;20.80;42.10
28374;DHT22;15616;40.148;-102.718;2023-03-01T15:47:30;20.80;42.00
28374;DHT22;15616;40.148;-102.718;2023-03-01T15:49:58;20.80;42.50
28374;DHT22;15616;40.148;-102.718;2023-03-01T15:52:32;20.80;41.90
28374;DHT22;15616;40.148;-102.718;2023-03-01T15:55:05;20.80;42.20
28374;DHT22;15616;40.148;-102.718;2023-03-01T15:57:31;20.80;42.10
28374;DHT22;15616;40.148;-102.718;2023-03-01T15:59:57;20.80;42.00
28374;DHT22;15616;40.148;-102.718;2023-03-01T16:02:24;20.80;42.00
28374;DHT22;15616;40.148;-102.718;2023-03-01T16:04:50;20.80;41.80
28374;DHT22;15616;40.148;-102.718;2023-03-01T16:07:17;20.80;41.70
28374;DHT22;15616;40.148;-102.718;2023-03-01T16:09:42;20.70;41.50
28374;DHT22;15616;40.148;-102.718;2023-03-01T16:12:15;20.80;41.60
28374;DHT22;15616;40.148;-102.718;2023-03-01T16:14:42;20.80;41.50
28374;DHT22;15616;40.148;-102.718;2023-03-01T16:17:08;20.80;41.60
28374;DHT22;15616;40.148;-102.718;2023-03-01T16:19:36;20.80;41.70
28374;DHT22;15616;40.148;-102.718;2023-03-01T16:22:03;20.80;41.70
28374;DHT22;15616;40.148;-102.718;2023-03-01T16:24:29;20.80;41.80
28374;DHT22;15616;40.148;-102.718;2023-03-01T16:26:56;20.80;41.70
28374;DHT22;15616;40.148;-102.718;2023-03-01T16:29:21;20.70;41.70
28374;DHT22;15616;40.148;-102.718;2023-03-01T16:31:48;20.70;41.80
28374;DHT22;15616;40.148;-102.718;2023-03-01T16:34:14;20.70;41.90
28374;DHT22;15616;40.148;-102.718;2023-03-01T16:36:39;20.70;41.90
28374;DHT22;15616;40.148;-102.718;2023-03-01T16:39:09;20.70;42.00
28374;DHT22;15616;40.148;-102.718;2023-03-01T16:41:35;20.70;42.10
28374;DHT22;15616;40.148;-102.718;2023-03-01T16:44:01;20.70;42.10
28374;DHT22;15616;40.148;-102.718;2023-03-01T16:46:28;20.70;42.10
28374;DHT22;15616;40.148;-102.718;2023-03-01T16:48:55;20.70;42.10
28374;DHT22;15616;40.148;-102.718;2023-03-01T16:51:21;20.70;42.00
28374;DHT22;15616;40.148;-102.718;2023-03-01T16:53:48;20.70;42.00
28374;DHT22;15616;40.148;-102.718;2023-03-01T16:56:15;20.70;42.00
28374;DHT22;15616;40.148;-102.718;2023-03-01T16:58:41;20.70;42.00
28374;DHT22;15616;40.148;-102.718;2023-03-01T17:01:18;20.70;42.10
28374;DHT22;15616;40.148;-102.718;2023-03-01T17:03:46;20.70;42.80
28374;DHT22;15616;40.148;-102.718;2023-03-01T17:06:16;20.70;42.20
28374;DHT22;15616;40.148;-102.718;2023-03-01T17:08:42;20.70;42.30
28374;DHT22;15616;40.148;-102.718;2023-03-01T17:11:14;20.70;42.30
28374;DHT22;15616;40.148;-102.718;2023-03-01T17:13:40;20.70;42.30
28374;DHT22;15616;40.148;-102.718;2023-03-01T17:16:09;20.70;42.30
28374;DHT22;15616;40.148;-102.718;2023-03-01T17:18:35;20.70;42.40
28374;DHT22;15616;40.148;-102.718;2023-03-01T17:21:02;20.70;42.40